Météo Nord-Pas-de-Calais   La météo au plus près de chez vous

Station météorologique

Observations météo à Leran (09161)

09161003 391 m Dernier relevé à 08:00
13.6°C
Humidité 94 % Vent 2.9 km/h

Journée consultée

Jeudi 3 Septembre 2026

Synthèse de la journée

Périodes de référence en UTC

Température minimale

12.6°C

à 07:24

18h 18h

Rafale maximale

7 km/h

à 07:06

00h 00h

Graphiques de la journée

Heure locale Réduire

Données détaillées

Relevés météo

Pas de 6 minutes Afficher les relevés infra-horaires
Relevés météo détaillés à Leran pour le Jeudi 3 Septembre 2026
Heure Température °C Point de rosée °C Humidité % Vent moyen (raf.), km/h Précipitations mm
08:00 13.6 °C 12.5 °C 93 % 0 km/h (3 km/h) 0 mm0 mm
07:54 13.5 °C 12.7 °C 95 % 0 km/h (3 km/h) 0 mm0 mm
07:48 13.1 °C 12.3 °C 95 % 0 km/h (3 km/h) 0 mm0 mm
07:42 12.8 °C 11.9 °C 94 % 0 km/h (3 km/h) 0 mm0 mm
07:36 12.8 °C 12 °C 95 % 0 km/h (4 km/h) 0 mm0 mm
07:30 12.8 °C 12 °C 95 % 0 km/h (4 km/h) 0 mm0 mm
07:24 12.6 °C 11.5 °C 93 % 0 km/h (3 km/h) 0 mm0 mm
07:18 12.7 °C 11.8 °C 94 % 2 km/h (5 km/h) 0 mm0 mm
07:12 12.7 °C 11.8 °C 94 % 4 km/h (6 km/h) 0 mm0 mm
07:06 12.7 °C 11.6 °C 93 % 4 km/h (7 km/h) 0 mm0 mm
07:00 13 °C 12.1 °C 94 % 3 km/h (5 km/h) 0 mm0.2 mm
06:54 13.1 °C 12.3 °C 95 % 0 km/h (4 km/h) 0.2 mm0 mm
06:48 13.1 °C 12.2 °C 94 % 0 km/h (2 km/h) 0 mm0 mm
06:42 13.4 °C 12.6 °C 95 % 0 km/h (2 km/h) 0 mm0 mm
06:36 13.4 °C 12.5 °C 94 % 0 km/h (2 km/h) 0 mm0 mm
06:30 13.5 °C 12.6 °C 94 % 0 km/h (2 km/h) 0 mm0 mm
06:24 13.6 °C 12.8 °C 95 % 0 km/h (2 km/h) 0 mm0 mm
06:18 13.6 °C 12.7 °C 94 % 0 km/h (3 km/h) 0 mm0 mm
06:12 13.6 °C 12.7 °C 94 % 0 km/h (3 km/h) 0 mm0 mm
06:06 13.5 °C 12.4 °C 93 % 2 km/h (4 km/h) 0 mm0 mm
06:00 13.3 °C 11.9 °C 91 % 3 km/h (4 km/h) 0 mm0 mm
05:54 13.6 °C 12.3 °C 92 % 2 km/h (4 km/h) 0 mm0 mm
05:48 13.6 °C 12.3 °C 92 % 0 km/h (4 km/h) 0 mm0 mm
05:42 14 °C 12.9 °C 93 % 0 km/h (3 km/h) 0 mm0 mm
05:36 14 °C 12.9 °C 93 % 0 km/h (2 km/h) 0 mm0 mm
05:30 13.8 °C 12.2 °C 90 % 0 km/h (3 km/h) 0 mm0 mm
05:24 14 °C 12.6 °C 91 % 0 km/h (3 km/h) 0 mm0 mm
05:18 14.2 °C 13.1 °C 93 % 0 km/h (2 km/h) 0 mm0 mm
05:12 14.1 °C 12.7 °C 91 % 0 km/h (2 km/h) 0 mm0 mm
05:06 14 °C 12.4 °C 90 % 0 km/h (2 km/h) 0 mm0 mm
05:00 14.3 °C 12.7 °C 90 % 0 km/h (3 km/h) 0 mm0 mm
04:54 14.6 °C 13.5 °C 93 % 0 km/h (3 km/h) 0 mm0 mm
04:48 14.6 °C 13.3 °C 92 % 0 km/h (0 km/h) 0 mm0 mm
04:42 14.6 °C 13.1 °C 91 % 0 km/h (3 km/h) 0 mm0 mm
04:36 14.7 °C 13.2 °C 91 % 0 km/h (3 km/h) 0 mm0 mm
04:30 14.8 °C 13.3 °C 91 % 0 km/h (0 km/h) 0 mm0 mm
04:24 14.9 °C 13.4 °C 91 % 0 km/h (3 km/h) 0 mm0 mm
04:18 15.1 °C 13.8 °C 92 % 0 km/h (3 km/h) 0 mm0 mm
04:12 15.1 °C 13.6 °C 91 % 0 km/h (3 km/h) 0 mm0 mm
04:06 15.2 °C 13.7 °C 91 % 0 km/h (3 km/h) 0 mm0 mm
04:00 15 °C 12.9 °C 87 % 0 km/h (2 km/h) 0 mm0 mm
03:54 15.1 °C 13.1 °C 88 % 0 km/h (2 km/h) 0 mm0 mm
03:48 15.4 °C 13.6 °C 89 % 0 km/h (3 km/h) 0 mm0 mm
03:42 15.6 °C 14 °C 90 % 0 km/h (3 km/h) 0 mm0 mm
03:36 15.5 °C 13.5 °C 88 % 0 km/h (2 km/h) 0 mm0 mm
03:30 15.7 °C 13.7 °C 88 % 0 km/h (0 km/h) 0 mm0 mm
03:24 15.8 °C 13.8 °C 88 % 0 km/h (0 km/h) 0 mm0 mm
03:18 15.9 °C 13.9 °C 88 % 0 km/h (0 km/h) 0 mm0 mm
03:12 15.9 °C 13.6 °C 86 % 0 km/h (2 km/h) 0 mm0 mm
03:06 16.1 °C 13.8 °C 86 % 0 km/h (0 km/h) 0 mm0 mm
03:00 16.2 °C 13.7 °C 85 % 0 km/h (0 km/h) 0 mm0 mm
02:54 16.5 °C 14.1 °C 86 % 0 km/h (0 km/h) 0 mm0 mm
02:48 16.7 °C 14.3 °C 86 % 0 km/h (0 km/h) 0 mm0 mm
02:42 16.8 °C 14.1 °C 84 % 0 km/h (2 km/h) 0 mm0 mm
02:36 16.7 °C 13 °C 79 % 0 km/h (3 km/h) 0 mm0 mm
02:30 16.8 °C 13.1 °C 79 % 0 km/h (3 km/h) 0 mm0 mm
02:24 16.9 °C 13.2 °C 79 % 0 km/h (2 km/h) 0 mm0 mm
02:18 17 °C 13.3 °C 79 % 0 km/h (2 km/h) 0 mm0 mm
02:12 17 °C 13.1 °C 78 % 0 km/h (2 km/h) 0 mm0 mm
02:06 17.1 °C 13.4 °C 79 % 0 km/h (2 km/h) 0 mm0 mm
02:00 17.1 °C 13.2 °C 78 % 0 km/h (2 km/h) 0 mm0 mm
01:54 17.2 °C 13.1 °C 77 % 0 km/h (0 km/h) 0 mm0 mm
01:48 17.3 °C 13.6 °C 79 % 0 km/h (3 km/h) 0 mm0 mm
01:42 17.7 °C 14.6 °C 82 % 0 km/h (3 km/h) 0 mm0 mm
01:36 17.9 °C 14.6 °C 81 % 0 km/h (3 km/h) 0 mm0 mm
01:30 17.9 °C 14.2 °C 79 % 0 km/h (3 km/h) 0 mm0 mm
01:24 18.1 °C 14.4 °C 79 % 0 km/h (2 km/h) 0 mm0 mm
01:18 18.2 °C 14.5 °C 79 % 0 km/h (2 km/h) 0 mm0 mm
01:12 18.4 °C 13.9 °C 75 % 0 km/h (3 km/h) 0 mm0 mm
01:06 18.5 °C 13.8 °C 74 % 0 km/h (3 km/h) 0 mm0 mm
01:00 18.7 °C 14.2 °C 75 % 0 km/h (3 km/h) 0 mm0 mm
00:54 18.7 °C 13.1 °C 70 % 0 km/h (3 km/h) 0 mm0 mm
00:48 19 °C 13.6 °C 71 % 0 km/h (4 km/h) 0 mm0 mm
00:42 19.1 °C 13.5 °C 70 % 2 km/h (5 km/h) 0 mm0 mm
00:36 19.3 °C 13.7 °C 70 % 3 km/h (5 km/h) 0 mm0 mm
00:30 19.5 °C 13.7 °C 69 % 4 km/h (6 km/h) 0 mm0 mm
00:24 19.7 °C 13.6 °C 68 % 3 km/h (6 km/h) 0 mm0 mm
00:18 20 °C 13.7 °C 67 % 3 km/h (4 km/h) 0 mm0 mm
00:12 20.3 °C 13.5 °C 65 % 4 km/h (7 km/h) 0 mm0 mm
00:06 20.6 °C 13.5 °C 64 % 6 km/h (9 km/h) 0 mm0 mm
00:00 20.6 °C 13.5 °C 64 % 6 km/h (9 km/h) 0 mm0 mm

Données via Météo-France

Relevés météo à Leran

Cette page rassemble les observations de la station de Leran : température, humidité, vent, précipitations et pression atmosphérique. Les graphiques facilitent le suivi de la journée, tandis que le tableau donne accès aux mesures horaires et infra-horaires disponibles.

Pour replacer ces mesures dans leur contexte, consultez la climatologie de Leran ainsi que ses normales et records. Retrouvez aussi la carte des observations météo en temps réel.